Time;durP1;ratioP1;P1;durP2;ratioP2;P2;SDS_P1;SDS_P2;PMS_P1;PMS_P2;Temp;Humidity;BMP_temperature;BMP_pressure;BME280_temperature;BME280_humidity;BME280_pressure;Samples;Min_cycle;Max_cycle;Signal;HPM_P1;HPM_P2
2023/04/10 00:01:49;;;;;;;1.15;1.15;;;4.00;96.90;;;;;;5034341;28;20942;-70
2023/04/10 00:04:14;;;;;;;0.53;0.53;;;3.90;96.70;;;;;;5034095;28;20175;-73
2023/04/10 00:06:41;;;;;;;0.40;0.40;;;3.90;96.80;;;;;;5034275;28;20178;-76
2023/04/10 00:09:07;;;;;;;0.40;0.40;;;3.90;96.70;;;;;;5033918;28;20177;-71
2023/04/10 00:11:33;;;;;;;1.88;1.50;;;3.80;96.80;;;;;;5033941;28;20195;-74
2023/04/10 00:13:58;;;;;;;1.70;0.73;;;3.80;96.90;;;;;;5033929;28;20194;-75
2023/04/10 00:16:24;;;;;;;1.57;1.50;;;3.80;97.00;;;;;;5033965;28;20198;-77
2023/04/10 00:18:50;;;;;;;0.40;0.40;;;3.80;96.90;;;;;;5034044;28;20225;-72
2023/04/10 00:21:16;;;;;;;1.93;1.93;;;3.80;97.00;;;;;;5033961;28;20432;-70
2023/04/10 00:23:41;;;;;;;0.80;0.80;;;3.80;97.20;;;;;;5033651;28;20178;-76
2023/04/10 00:26:07;;;;;;;0.60;0.60;;;3.90;97.10;;;;;;5033754;28;20635;-75
2023/04/10 00:28:36;;;;;;;0.80;0.80;;;4.00;96.70;;;;;;5033804;28;20171;-72
2023/04/10 00:31:03;;;;;;;1.73;1.27;;;4.00;96.60;;;;;;5033707;28;20434;-74
2023/04/10 00:33:29;;;;;;;0.40;0.40;;;3.90;96.50;;;;;;5033472;28;20229;-71
2023/04/10 00:35:55;;;;;;;0.40;0.40;;;3.80;96.40;;;;;;5033721;28;20623;-73
2023/04/10 00:38:21;;;;;;;0.40;0.40;;;3.70;96.70;;;;;;5033580;28;20413;-70
2023/04/10 00:40:47;;;;;;;1.67;1.23;;;3.70;96.80;;;;;;5033510;28;20627;-75
2023/04/10 00:43:13;;;;;;;0.75;0.75;;;3.60;97.00;;;;;;5033499;28;20179;-75
2023/04/10 00:45:39;;;;;;;0.50;0.50;;;3.70;96.90;;;;;;5032941;28;20178;-73
2023/04/10 00:48:05;;;;;;;0.40;0.40;;;3.60;96.80;;;;;;5033400;28;20166;-76
2023/04/10 00:50:31;;;;;;;1.83;1.73;;;3.70;96.70;;;;;;5033428;28;20171;-73
2023/04/10 00:52:58;;;;;;;3.72;0.95;;;3.80;96.40;;;;;;5033227;28;20177;-75
2023/04/10 00:55:24;;;;;;;0.40;0.40;;;3.70;96.40;;;;;;5033277;28;20248;-72
2023/04/10 00:57:51;;;;;;;0.80;0.80;;;3.60;96.50;;;;;;5015622;28;20211;-74
2023/04/10 01:00:17;;;;;;;0.50;0.50;;;3.50;96.50;;;;;;5033400;28;20250;-73
2023/04/10 01:02:43;;;;;;;0.50;0.50;;;3.50;96.60;;;;;;5033179;28;20240;-74
2023/04/10 01:05:11;;;;;;;0.93;0.93;;;3.40;96.80;;;;;;5033172;28;20619;-72
2023/04/10 01:07:51;;;;;;;0.93;0.93;;;3.50;97.00;;;;;;5033228;28;20450;-75
2023/04/10 01:10:23;;;;;;;0.40;0.40;;;3.50;97.00;;;;;;5015410;28;20198;-72
2023/04/10 01:13:13;;;;;;;3.03;2.88;;;3.40;96.80;;;;;;5032993;28;20194;-73
2023/04/10 01:15:48;;;;;;;0.40;0.40;;;3.30;96.80;;;;;;5033120;28;20185;-76
2023/04/10 01:18:37;;;;;;;1.10;1.10;;;3.30;97.00;;;;;;5015315;28;20205;-72
2023/04/10 01:21:06;;;;;;;0.40;0.40;;;3.30;96.90;;;;;;5022527;28;20233;-73
2023/04/10 01:24:06;;;;;;;1.50;1.40;;;3.40;96.80;;;;;;5032962;28;20261;-73
2023/04/10 01:26:51;;;;;;;1.50;1.50;;;3.40;96.60;;;;;;5033280;28;20537;-72
2023/04/10 01:29:19;;;;;;;1.52;0.60;;;3.20;96.70;;;;;;5033163;28;20211;-73
2023/04/10 01:32:19;;;;;;;1.02;1.02;;;3.30;96.80;;;;;;5032893;28;20280;-72
2023/04/10 01:34:49;;;;;;;0.60;0.60;;;3.30;96.60;;;;;;4990428;28;20185;-72
2023/04/10 01:37:22;;;;;;;0.40;0.40;;;3.20;96.80;;;;;;5032885;28;20204;-74
2023/04/10 01:40:05;;;;;;;0.70;0.70;;;3.20;96.90;;;;;;5032969;28;20255;-71
2023/04/10 01:42:38;;;;;;;1.63;1.52;;;3.20;96.90;;;;;;5033003;28;20650;-75
2023/04/10 01:45:08;;;;;;;0.40;0.40;;;3.00;97.00;;;;;;5032723;28;20189;-74
2023/04/10 01:47:34;;;;;;;0.40;0.40;;;3.10;97.00;;;;;;5033005;28;20221;-75
2023/04/10 01:50:00;;;;;;;0.55;0.50;;;3.00;97.00;;;;;;5032924;28;20190;-72
2023/04/10 01:52:29;;;;;;;0.50;0.50;;;3.00;97.00;;;;;;5032732;28;20198;-73
2023/04/10 01:54:55;;;;;;;0.38;0.38;;;3.00;97.10;;;;;;5032705;28;20177;-75
2023/04/10 01:57:21;;;;;;;0.40;0.40;;;2.90;97.30;;;;;;5035301;28;20198;-72
2023/04/10 01:59:46;;;;;;;0.82;0.57;;;2.90;97.40;;;;;;5036687;28;20217;-74
2023/04/10 02:02:12;;;;;;;0.40;0.40;;;2.80;97.50;;;;;;5036514;28;20650;-73
2023/04/10 02:04:38;;;;;;;1.37;1.27;;;2.80;97.60;;;;;;5036389;28;20220;-75
2023/04/10 02:07:22;;;;;;;0.87;0.87;;;2.80;97.70;;;;;;5018494;28;20171;-71
2023/04/10 02:09:54;;;;;;;1.02;1.02;;;2.70;97.60;;;;;;5036604;28;20463;-74
2023/04/10 02:12:29;;;;;;;1.77;1.77;;;2.80;97.30;;;;;;5036183;28;20194;-72
2023/04/10 02:14:58;;;;;;;0.73;0.50;;;2.80;97.20;;;;;;5036151;28;20170;-74
2023/04/10 02:17:30;;;;;;;0.70;0.70;;;2.90;97.30;;;;;;5036184;28;20727;-76
2023/04/10 02:19:57;;;;;;;1.40;0.88;;;3.00;97.40;;;;;;5036280;28;20181;-74
2023/04/10 02:22:24;;;;;;;0.40;0.40;;;2.90;97.30;;;;;;5036194;28;20739;-75
2023/04/10 02:24:51;;;;;;;0.40;0.40;;;2.90;97.40;;;;;;5036156;28;20182;-73
2023/04/10 02:27:27;;;;;;;1.40;1.30;;;2.90;97.60;;;;;;5036002;28;20181;-73
2023/04/10 02:29:52;;;;;;;0.63;0.63;;;2.90;97.50;;;;;;5036100;28;20224;-74
2023/04/10 02:32:18;;;;;;;2.83;1.90;;;2.80;97.40;;;;;;5036067;28;20651;-75
2023/04/10 02:34:44;;;;;;;0.80;0.80;;;2.80;97.60;;;;;;5035613;28;20249;-74
2023/04/10 02:37:09;;;;;;;1.13;1.13;;;2.80;97.70;;;;;;5035804;28;20658;-70
2023/04/10 02:39:36;;;;;;;0.60;0.60;;;2.70;97.70;;;;;;5035995;28;20412;-71
2023/04/10 02:42:01;;;;;;;0.98;0.70;;;2.80;97.90;;;;;;5017958;28;20388;-72
2023/04/10 02:44:27;;;;;;;2.83;1.60;;;2.90;97.80;;;;;;5035641;28;20677;-75
2023/04/10 02:46:52;;;;;;;1.07;1.03;;;2.90;97.80;;;;;;5035855;28;20257;-72
2023/04/10 02:49:18;;;;;;;0.40;0.40;;;2.90;97.90;;;;;;5035935;28;20182;-75
2023/04/10 02:51:44;;;;;;;1.53;0.90;;;2.90;97.90;;;;;;5035903;28;20190;-72
2023/04/10 02:54:10;;;;;;;0.53;0.53;;;2.80;98.00;;;;;;5035391;28;20591;-71
2023/04/10 02:56:35;;;;;;;0.40;0.40;;;2.80;98.10;;;;;;5035572;28;20241;-71
2023/04/10 02:59:01;;;;;;;0.47;0.47;;;2.80;98.00;;;;;;5035535;28;20398;-72
2023/04/10 03:01:27;;;;;;;0.30;0.30;;;2.90;97.90;;;;;;5017690;28;20313;-75
2023/04/10 03:03:52;;;;;;;0.60;0.60;;;3.00;97.60;;;;;;5035170;28;20170;-73
2023/04/10 03:06:18;;;;;;;0.80;0.70;;;2.90;97.40;;;;;;5035289;28;20262;-74
2023/04/10 03:08:43;;;;;;;0.83;0.83;;;2.90;97.60;;;;;;5034584;28;20245;-73
2023/04/10 03:11:09;;;;;;;0.70;0.50;;;3.00;97.70;;;;;;5035088;28;20222;-70
2023/04/10 03:13:35;;;;;;;0.37;0.37;;;3.10;97.60;;;;;;5034976;28;20718;-74
2023/04/10 03:16:00;;;;;;;0.40;0.40;;;3.10;97.60;;;;;;5035175;28;20173;-75
2023/04/10 03:18:26;;;;;;;0.53;0.50;;;3.10;97.60;;;;;;5035179;28;20178;-73
2023/04/10 03:20:51;;;;;;;0.50;0.43;;;3.10;97.50;;;;;;5034858;28;20186;-73
2023/04/10 03:23:17;;;;;;;0.50;0.50;;;3.00;97.60;;;;;;5035088;28;20171;-74
2023/04/10 03:25:43;;;;;;;0.40;0.40;;;3.00;97.60;;;;;;5034868;28;20179;-75
2023/04/10 03:28:08;;;;;;;0.50;0.50;;;3.00;97.50;;;;;;5034956;28;20209;-72
2023/04/10 03:30:35;;;;;;;0.40;0.40;;;2.90;97.60;;;;;;5016920;28;20596;-72
2023/04/10 03:33:01;;;;;;;0.40;0.40;;;2.90;97.70;;;;;;5034547;28;20258;-71
2023/04/10 03:35:27;;;;;;;1.17;1.07;;;2.90;97.80;;;;;;5034719;28;20277;-73
2023/04/10 03:37:53;;;;;;;0.50;0.50;;;3.00;97.90;;;;;;5034671;28;20448;-75
2023/04/10 03:40:18;;;;;;;0.40;0.40;;;3.00;97.90;;;;;;5034835;28;20204;-75
2023/04/10 03:42:44;;;;;;;0.40;0.40;;;3.10;98.00;;;;;;5034578;28;20187;-76
2023/04/10 03:45:10;;;;;;;0.50;0.50;;;3.10;97.90;;;;;;5016806;28;20180;-70
2023/04/10 03:47:36;;;;;;;2.05;1.95;;;3.00;98.20;;;;;;5034666;28;20599;-75
2023/04/10 03:50:02;;;;;;;0.40;0.40;;;3.00;98.00;;;;;;5034442;28;20175;-76
2023/04/10 03:52:28;;;;;;;0.90;0.90;;;3.00;98.00;;;;;;5034628;28;20791;-74
2023/04/10 03:54:54;;;;;;;0.60;0.60;;;3.00;98.20;;;;;;5016566;28;20181;-71
2023/04/10 03:57:20;;;;;;;0.73;0.70;;;3.00;98.20;;;;;;5034453;28;20232;-72
2023/04/10 03:59:46;;;;;;;0.40;0.40;;;3.00;98.10;;;;;;5034393;28;20198;-75
2023/04/10 04:02:12;;;;;;;0.50;0.50;;;3.00;97.90;;;;;;5034139;28;20193;-74
2023/04/10 04:04:38;;;;;;;0.90;0.90;;;3.00;98.00;;;;;;5034003;28;20180;-74
2023/04/10 04:07:04;;;;;;;0.40;0.40;;;3.00;98.20;;;;;;5034355;28;20174;-76
2023/04/10 04:09:30;;;;;;;0.80;0.80;;;3.10;98.20;;;;;;5034026;28;20577;-74
2023/04/10 04:11:56;;;;;;;0.33;0.33;;;3.20;98.00;;;;;;5033947;28;20191;-72
2023/04/10 04:14:22;;;;;;;0.50;0.50;;;3.10;97.80;;;;;;5033839;28;20193;-75
2023/04/10 04:16:48;;;;;;;1.70;1.67;;;3.00;97.80;;;;;;5034009;28;20496;-73
2023/04/10 04:19:14;;;;;;;1.95;0.80;;;3.00;98.00;;;;;;5033405;28;20209;-72
2023/04/10 04:21:39;;;;;;;0.70;0.70;;;3.00;98.00;;;;;;5033440;28;20226;-73
2023/04/10 04:24:05;;;;;;;0.80;0.80;;;2.90;98.10;;;;;;5033699;28;20538;-71
2023/04/10 04:26:32;;;;;;;1.23;1.20;;;3.00;98.40;;;;;;5016197;28;20179;-72
2023/04/10 04:28:57;;;;;;;0.50;0.50;;;3.00;98.40;;;;;;5033990;28;20174;-75
2023/04/10 04:31:23;;;;;;;0.77;0.77;;;3.00;98.30;;;;;;5033765;28;20213;-75
2023/04/10 04:33:50;;;;;;;0.50;0.50;;;3.00;98.30;;;;;;5033456;28;20253;-72
2023/04/10 04:36:15;;;;;;;0.40;0.40;;;3.00;98.30;;;;;;5033629;28;20186;-73
2023/04/10 04:38:41;;;;;;;0.30;0.30;;;3.00;98.20;;;;;;5034092;28;20169;-77
2023/04/10 04:41:08;;;;;;;0.40;0.40;;;3.00;98.30;;;;;;5033510;28;20519;-73
2023/04/10 04:43:34;;;;;;;1.05;0.95;;;3.00;98.40;;;;;;5033442;28;20178;-73
2023/04/10 04:45:59;;;;;;;0.80;0.80;;;3.10;98.50;;;;;;5033568;28;20172;-72
2023/04/10 04:48:25;;;;;;;0.90;0.90;;;3.10;98.30;;;;;;5033311;28;20173;-70
2023/04/10 04:50:50;;;;;;;0.60;0.60;;;3.20;98.00;;;;;;5033189;28;20571;-72
2023/04/10 04:53:16;;;;;;;0.40;0.40;;;3.20;97.90;;;;;;5033338;28;20171;-71
2023/04/10 04:55:42;;;;;;;0.97;0.97;;;3.20;98.10;;;;;;5033380;28;20178;-77
2023/04/10 04:58:07;;;;;;;0.60;0.60;;;3.10;98.30;;;;;;5033397;28;20213;-70
2023/04/10 05:00:33;;;;;;;0.97;0.97;;;3.10;98.60;;;;;;5033318;28;20178;-73
2023/04/10 05:02:59;;;;;;;0.70;0.70;;;3.10;98.80;;;;;;5033048;28;20196;-73
2023/04/10 05:05:25;;;;;;;2.20;2.10;;;3.30;98.70;;;;;;5015455;28;20170;-74
2023/04/10 05:07:50;;;;;;;2.87;1.17;;;3.30;98.40;;;;;;5033265;28;20413;-75
2023/04/10 05:10:16;;;;;;;6.90;2.20;;;3.40;98.20;;;;;;5033069;28;20432;-72
2023/04/10 05:12:42;;;;;;;0.60;0.60;;;3.30;98.30;;;;;;5033076;28;20191;-71
2023/04/10 05:15:08;;;;;;;0.50;0.50;;;3.50;98.20;;;;;;5033074;28;20253;-73
2023/04/10 05:17:34;;;;;;;0.40;0.40;;;3.60;98.10;;;;;;5032904;28;20199;-73
2023/04/10 05:20:00;;;;;;;0.30;0.30;;;3.70;98.00;;;;;;5033116;28;20189;-72
2023/04/10 05:22:26;;;;;;;0.63;0.63;;;3.60;98.00;;;;;;5033000;28;20938;-73
2023/04/10 05:24:53;;;;;;;0.50;0.50;;;3.60;98.00;;;;;;5032962;28;20177;-75
2023/04/10 05:27:20;;;;;;;1.00;1.00;;;3.60;98.00;;;;;;5033133;28;20174;-75
2023/04/10 05:29:45;;;;;;;0.40;0.40;;;3.70;98.10;;;;;;5032903;28;20214;-72
2023/04/10 05:32:12;;;;;;;0.60;0.60;;;3.80;97.70;;;;;;5017712;28;20206;-74
2023/04/10 05:34:38;;;;;;;1.92;1.83;;;3.90;97.90;;;;;;5036949;28;20167;-72
2023/04/10 05:37:03;;;;;;;0.50;0.43;;;4.00;98.00;;;;;;5037005;28;20693;-73
2023/04/10 05:39:29;;;;;;;0.40;0.40;;;4.10;97.80;;;;;;5036831;28;20167;-74
2023/04/10 05:41:55;;;;;;;0.57;0.57;;;4.10;97.50;;;;;;5036750;28;20190;-73
2023/04/10 05:44:21;;;;;;;0.40;0.40;;;4.20;97.50;;;;;;5036888;28;20163;-76
2023/04/10 05:46:46;;;;;;;0.40;0.40;;;4.40;97.40;;;;;;5036774;28;20689;-76
2023/04/10 05:49:12;;;;;;;0.50;0.50;;;4.70;97.00;;;;;;5036915;28;20681;-73
2023/04/10 05:51:38;;;;;;;1.13;0.97;;;4.80;96.70;;;;;;5036625;28;20202;-73
2023/04/10 05:54:03;;;;;;;0.97;0.97;;;5.00;96.60;;;;;;5036451;28;20171;-72
2023/04/10 05:56:29;;;;;;;0.80;0.80;;;5.20;96.50;;;;;;5036735;28;20281;-73
2023/04/10 05:58:55;;;;;;;1.03;1.03;;;5.40;96.60;;;;;;5036485;28;20170;-74
2023/04/10 06:01:20;;;;;;;0.70;0.70;;;5.70;96.30;;;;;;5036434;28;20575;-76
2023/04/10 06:03:46;;;;;;;0.77;0.77;;;5.80;95.50;;;;;;5036341;28;20176;-76
2023/04/10 06:06:12;;;;;;;0.40;0.40;;;5.90;95.30;;;;;;5036582;28;20214;-74
2023/04/10 06:08:37;;;;;;;1.37;1.37;;;6.00;94.90;;;;;;5036518;28;20180;-76
2023/04/10 06:11:03;;;;;;;0.70;0.70;;;5.90;94.70;;;;;;5036063;28;20230;-76
2023/04/10 06:13:29;;;;;;;0.70;0.70;;;6.10;95.10;;;;;;5018238;28;20172;-74
2023/04/10 06:15:54;;;;;;;0.50;0.50;;;6.20;95.00;;;;;;5036603;28;20176;-74
2023/04/10 06:18:20;;;;;;;1.47;1.47;;;6.50;94.50;;;;;;5036250;28;20620;-71
2023/04/10 06:20:46;;;;;;;0.90;0.90;;;6.80;94.10;;;;;;5036235;28;20221;-73
2023/04/10 06:23:12;;;;;;;1.07;1.03;;;7.00;93.50;;;;;;5035781;28;20177;-71
2023/04/10 06:25:38;;;;;;;1.85;1.77;;;7.20;93.00;;;;;;5036437;28;20169;-73
2023/04/10 06:28:04;;;;;;;1.70;1.50;;;7.40;92.80;;;;;;5036105;28;20185;-74
2023/04/10 06:30:30;;;;;;;2.10;1.33;;;7.30;92.30;;;;;;5036376;28;20173;-75
2023/04/10 06:32:55;;;;;;;1.33;1.33;;;7.50;93.10;;;;;;5035758;28;20488;-76
2023/04/10 06:35:21;;;;;;;0.73;0.60;;;7.90;92.10;;;;;;5036208;28;20412;-73
2023/04/10 06:37:47;;;;;;;0.70;0.70;;;8.40;92.20;;;;;;5036073;28;20203;-71
2023/04/10 06:40:14;;;;;;;0.87;0.83;;;8.80;91.00;;;;;;5036016;28;20515;-76
2023/04/10 06:42:40;;;;;;;1.58;1.48;;;9.00;90.80;;;;;;5034839;28;20436;-74
2023/04/10 06:45:06;;;;;;;1.63;1.55;;;9.30;90.20;;;;;;5035591;28;20175;-73
2023/04/10 06:47:32;;;;;;;0.60;0.60;;;9.70;90.30;;;;;;5035650;28;20170;-76
2023/04/10 06:49:58;;;;;;;1.03;1.00;;;10.10;88.00;;;;;;5036240;28;20752;-75
2023/04/10 06:52:24;;;;;;;0.70;0.60;;;10.90;86.50;;;;;;5035536;28;20694;-76
2023/04/10 06:54:49;;;;;;;0.80;0.80;;;11.80;83.20;;;;;;5017716;28;20181;-75
2023/04/10 06:57:15;;;;;;;1.83;1.43;;;12.90;80.20;;;;;;5035551;28;20200;-75
2023/04/10 06:59:41;;;;;;;1.67;1.30;;;13.80;76.00;;;;;;5035564;28;20655;-75
2023/04/10 07:02:07;;;;;;;0.70;0.70;;;14.60;71.70;;;;;;5035279;28;20438;-74
2023/04/10 07:04:33;;;;;;;1.23;1.13;;;15.20;67.30;;;;;;5035189;28;20491;-75
2023/04/10 07:06:58;;;;;;;0.83;0.83;;;15.70;64.50;;;;;;5035450;28;20540;-75
2023/04/10 07:09:28;;;;;;;0.40;0.40;;;16.40;61.10;;;;;;5035301;28;20665;-76
2023/04/10 07:11:54;;;;;;;0.60;0.60;;;17.00;60.00;;;;;;5035516;28;20243;-74
2023/04/10 07:14:20;;;;;;;0.90;0.90;;;18.20;55.40;;;;;;5035249;28;20401;-77
2023/04/10 07:16:46;;;;;;;0.50;0.50;;;19.40;52.50;;;;;;5035301;28;20290;-75
2023/04/10 07:19:12;;;;;;;1.77;1.67;;;20.50;50.90;;;;;;5035165;28;20555;-74
2023/04/10 07:21:37;;;;;;;1.30;1.10;;;21.50;47.10;;;;;;5035098;28;20423;-74
2023/04/10 07:24:03;;;;;;;0.50;0.50;;;22.30;46.00;;;;;;5034795;28;20259;-74
2023/04/10 07:26:29;;;;;;;2.30;1.20;;;23.10;44.40;;;;;;5035377;28;20178;-75
2023/04/10 07:28:54;;;;;;;0.80;0.80;;;23.60;42.40;;;;;;5034928;28;20246;-75
2023/04/10 07:31:20;;;;;;;0.90;0.80;;;24.20;40.80;;;;;;5034850;28;20225;-73
2023/04/10 07:33:46;;;;;;;0.80;0.80;;;25.00;40.00;;;;;;5034736;28;20175;-79
2023/04/10 07:36:11;;;;;;;1.30;0.90;;;26.30;38.30;;;;;;5034891;28;20249;-76
2023/04/10 07:38:37;;;;;;;1.07;0.97;;;27.50;35.40;;;;;;5034902;28;20174;-74
2023/04/10 07:41:04;;;;;;;0.73;0.73;;;28.50;35.20;;;;;;5034924;28;20183;-73
2023/04/10 07:43:30;;;;;;;0.90;0.90;;;29.50;33.10;;;;;;5034510;28;20421;-76
2023/04/10 07:45:56;;;;;;;1.37;0.83;;;30.00;31.50;;;;;;5034800;28;20405;-75
2023/04/10 07:48:22;;;;;;;0.77;0.77;;;30.50;30.20;;;;;;5034676;28;20171;-75
2023/04/10 07:50:48;;;;;;;0.80;0.80;;;31.00;29.90;;;;;;5034516;28;20929;-78
2023/04/10 07:53:14;;;;;;;0.90;0.90;;;31.50;29.10;;;;;;5034290;28;20186;-75
2023/04/10 07:55:42;;;;;;;0.80;0.70;;;31.60;28.70;;;;;;5034146;28;20174;-76
2023/04/10 07:58:08;;;;;;;0.80;0.80;;;31.70;28.30;;;;;;5034505;28;20877;-75
2023/04/10 08:00:34;;;;;;;1.20;0.93;;;31.80;28.10;;;;;;5034423;28;20552;-73
2023/04/10 08:03:00;;;;;;;1.23;0.87;;;31.80;27.50;;;;;;5034105;28;20191;-76
2023/04/10 08:05:27;;;;;;;1.27;1.17;;;31.90;27.80;;;;;;5034347;28;20441;-76
2023/04/10 08:07:52;;;;;;;0.90;0.80;;;32.00;27.00;;;;;;5034330;28;20890;-74
2023/04/10 08:10:18;;;;;;;0.70;0.70;;;30.90;27.50;;;;;;5033994;28;20193;-74
2023/04/10 08:12:44;;;;;;;1.33;0.87;;;30.10;27.60;;;;;;5034011;28;20256;-73
2023/04/10 08:15:10;;;;;;;1.23;1.10;;;29.20;28.50;;;;;;5033917;28;20181;-72
2023/04/10 08:17:36;;;;;;;0.80;0.80;;;29.10;28.60;;;;;;5034076;28;20585;-77
2023/04/10 08:20:03;;;;;;;1.63;1.27;;;28.90;28.50;;;;;;5034101;28;20405;-75
2023/04/10 08:22:28;;;;;;;0.67;0.67;;;28.90;28.50;;;;;;5033787;28;20280;-75
2023/04/10 08:24:54;;;;;;;0.90;0.87;;;29.10;28.20;;;;;;5033712;28;20489;-75
2023/04/10 08:27:20;;;;;;;0.60;0.60;;;29.30;28.40;;;;;;5033839;28;20220;-74
2023/04/10 08:29:45;;;;;;;1.00;0.60;;;29.10;28.20;;;;;;5033792;28;20213;-75
2023/04/10 08:32:11;;;;;;;1.33;1.03;;;28.50;28.20;;;;;;5033696;28;20659;-72
2023/04/10 08:34:36;;;;;;;1.10;0.80;;;27.50;29.20;;;;;;5033764;28;20179;-74
2023/04/10 08:37:08;;;;;;;0.90;0.80;;;27.30;29.90;;;;;;5033682;28;20211;-74
2023/04/10 08:39:37;;;;;;;0.80;0.70;;;27.00;29.40;;;;;;5033605;28;20225;-74
2023/04/10 08:42:06;;;;;;;0.70;0.70;;;27.50;29.50;;;;;;5033462;28;20433;-74
2023/04/10 08:44:31;;;;;;;2.63;1.20;;;28.10;29.30;;;;;;5033456;28;20413;-75
2023/04/10 08:47:01;;;;;;;1.17;1.07;;;28.60;28.70;;;;;;5033570;28;20493;-77
2023/04/10 08:49:48;;;;;;;1.10;0.97;;;28.30;28.50;;;;;;5033623;28;20175;-76
2023/04/10 08:52:16;;;;;;;0.97;0.97;;;28.10;28.80;;;;;;5033405;28;20524;-76
2023/04/10 08:54:46;;;;;;;0.90;0.80;;;27.40;28.40;;;;;;5033233;28;20405;-72
2023/04/10 08:57:19;;;;;;;1.03;0.97;;;26.80;29.00;;;;;;5033243;28;20453;-75
2023/04/10 08:59:49;;;;;;;1.43;0.97;;;27.20;30.00;;;;;;5033310;28;20408;-74
2023/04/10 09:02:14;;;;;;;0.90;0.60;;;28.30;28.70;;;;;;5033174;28;20515;-77
2023/04/10 09:04:46;;;;;;;1.23;0.87;;;28.60;28.50;;;;;;5033067;28;20914;-75
2023/04/10 09:07:12;;;;;;;2.87;1.30;;;28.50;28.20;;;;;;5032743;28;20171;-73
2023/04/10 09:09:38;;;;;;;1.00;0.70;;;28.70;29.00;;;;;;5033129;28;20437;-78
2023/04/10 09:12:05;;;;;;;0.80;0.60;;;28.50;28.60;;;;;;5033085;28;20667;-72
2023/04/10 09:14:33;;;;;;;1.23;0.60;;;27.60;28.40;;;;;;5032952;28;20632;-75
2023/04/10 09:17:14;;;;;;;0.60;0.60;;;27.30;29.40;;;;;;5033741;28;20461;-78
2023/04/10 09:19:40;;;;;;;0.40;0.40;;;27.30;30.40;;;;;;5033251;28;20778;-75
2023/04/10 09:22:06;;;;;;;0.87;0.80;;;26.90;29.60;;;;;;5033051;28;20429;-74
2023/04/10 09:24:38;;;;;;;1.03;0.93;;;26.70;29.30;;;;;;5033116;28;20461;-76
2023/04/10 09:27:05;;;;;;;0.50;0.50;;;26.90;29.90;;;;;;5033202;28;20410;-75
2023/04/10 09:29:43;;;;;;;1.07;0.97;;;27.20;29.50;;;;;;5033023;28;20967;-77
2023/04/10 09:32:10;;;;;;;0.40;0.40;;;26.10;29.90;;;;;;5033225;28;20426;-72
2023/04/10 09:34:55;;;;;;;0.90;0.90;;;25.50;30.60;;;;;;5032969;28;20422;-75
2023/04/10 09:37:21;;;;;;;0.80;0.77;;;25.60;31.60;;;;;;5033062;28;20984;-76
2023/04/10 09:39:47;;;;;;;0.60;0.60;;;24.80;31.20;;;;;;5015133;28;20783;-74
2023/04/10 09:42:14;;;;;;;0.83;0.80;;;24.40;32.50;;;;;;5033001;28;20480;-75
2023/04/10 09:44:40;;;;;;;0.60;0.60;;;24.60;32.30;;;;;;5032814;28;20905;-78
2023/04/10 09:47:18;;;;;;;0.50;0.50;;;25.00;32.30;;;;;;5032991;28;20468;-74
2023/04/10 09:49:48;;;;;;;1.10;1.00;;;25.40;31.50;;;;;;5032972;28;20406;-74
2023/04/10 09:52:30;;;;;;;0.50;0.40;;;25.00;31.70;;;;;;5032788;28;20465;-74
2023/04/10 09:54:57;;;;;;;0.90;0.90;;;25.10;32.00;;;;;;5032666;28;20500;-76
2023/04/10 09:57:25;;;;;;;0.53;0.53;;;25.10;32.00;;;;;;5032936;28;20449;-75
2023/04/10 09:59:54;;;;;;;0.87;0.80;;;25.10;31.40;;;;;;5032877;28;20510;-73
2023/04/10 10:02:24;;;;;;;2.37;1.40;;;25.20;31.30;;;;;;5032625;28;20433;-77
2023/04/10 10:04:51;;;;;;;0.53;0.53;;;24.30;31.80;;;;;;5032498;28;20432;-76
2023/04/10 10:07:22;;;;;;;0.50;0.50;;;23.90;32.10;;;;;;5032844;28;20444;-74
2023/04/10 10:09:51;;;;;;;1.03;0.60;;;23.00;33.10;;;;;;5032626;28;20492;-75
2023/04/10 10:12:30;;;;;;;0.70;0.70;;;22.90;32.90;;;;;;5032539;28;20404;-73
2023/04/10 10:15:06;;;;;;;1.70;0.87;;;22.80;33.10;;;;;;5032550;28;20436;-78
2023/04/10 10:17:38;;;;;;;0.47;0.47;;;23.00;33.40;;;;;;5033830;28;20424;-74
2023/04/10 10:20:06;;;;;;;0.80;0.80;;;22.40;33.40;;;;;;5036278;28;20398;-74
2023/04/10 10:22:32;;;;;;;0.50;0.50;;;22.00;34.10;;;;;;5036069;28;20459;-72
2023/04/10 10:24:59;;;;;;;0.60;0.60;;;21.30;34.50;;;;;;5036153;28;20421;-73
2023/04/10 10:27:27;;;;;;;0.90;0.70;;;21.20;35.60;;;;;;5036239;28;20555;-78
2023/04/10 10:29:54;;;;;;;0.67;0.67;;;21.50;36.20;;;;;;5035949;28;20409;-71
2023/04/10 10:32:21;;;;;;;1.23;1.00;;;21.70;35.00;;;;;;5035949;28;20897;-73
2023/04/10 10:34:49;;;;;;;1.80;0.93;;;22.00;35.20;;;;;;5036043;28;20494;-73
2023/04/10 10:37:16;;;;;;;0.50;0.50;;;22.20;34.80;;;;;;5035968;28;20451;-74
2023/04/10 10:39:58;;;;;;;0.63;0.57;;;22.00;34.20;;;;;;5035975;28;20838;-74
2023/04/10 10:42:26;;;;;;;0.80;0.60;;;22.00;34.50;;;;;;5036016;28;20400;-73
2023/04/10 10:44:58;;;;;;;0.77;0.70;;;21.40;35.70;;;;;;5035554;28;20448;-74
2023/04/10 10:47:27;;;;;;;0.67;0.67;;;20.90;35.70;;;;;;5018164;28;20823;-74
2023/04/10 10:50:03;;;;;;;1.33;1.07;;;20.80;37.30;;;;;;5018097;28;20425;-77
2023/04/10 10:52:46;;;;;;;0.70;0.50;;;20.90;37.00;;;;;;5035737;28;20561;-74
2023/04/10 10:55:23;;;;;;;0.50;0.50;;;21.10;37.10;;;;;;5035480;28;20412;-71
2023/04/10 10:57:54;;;;;;;0.93;0.93;;;20.70;37.10;;;;;;5017737;28;20464;-79
2023/04/10 11:00:21;;;;;;;0.80;0.80;;;19.90;38.10;;;;;;5035699;28;20480;-73
2023/04/10 11:03:06;;;;;;;1.00;0.77;;;19.40;38.80;;;;;;5035253;28;20433;-76
2023/04/10 11:05:57;;;;;;;0.60;0.60;;;19.40;39.10;;;;;;5035386;28;20404;-72
2023/04/10 11:08:34;;;;;;;0.60;0.60;;;19.30;39.30;;;;;;5035499;28;20455;-77
2023/04/10 11:11:04;;;;;;;0.53;0.53;;;18.90;39.40;;;;;;5035380;28;20451;-75
2023/04/10 11:13:30;;;;;;;1.23;0.90;;;18.30;39.60;;;;;;5035088;28;20392;-76
2023/04/10 11:15:58;;;;;;;0.90;0.63;;;18.10;40.70;;;;;;5035234;28;20407;-76
2023/04/10 11:18:45;;;;;;;1.10;1.10;;;18.00;41.10;;;;;;5035288;28;20535;-74
2023/04/10 11:21:15;;;;;;;0.93;0.93;;;17.90;42.10;;;;;;5035056;28;20477;-76
2023/04/10 11:23:50;;;;;;;0.73;0.73;;;18.00;42.10;;;;;;5034877;28;20889;-74
2023/04/10 11:26:42;;;;;;;0.97;0.97;;;18.10;41.90;;;;;;5035198;28;20482;-75
2023/04/10 11:29:17;;;;;;;0.77;0.70;;;18.20;41.60;;;;;;5034593;28;20746;-74
2023/04/10 11:31:44;;;;;;;0.50;0.50;;;18.30;42.00;;;;;;5034914;28;20420;-75
2023/04/10 11:34:11;;;;;;;0.50;0.50;;;18.20;42.00;;;;;;5034683;28;20409;-72
2023/04/10 11:36:41;;;;;;;0.77;0.77;;;18.00;42.20;;;;;;5034713;28;20410;-73
2023/04/10 11:39:09;;;;;;;0.70;0.70;;;18.00;42.10;;;;;;5034755;28;20735;-73
2023/04/10 11:41:48;;;;;;;0.87;0.70;;;17.70;41.40;;;;;;5034708;28;20430;-73
2023/04/10 11:44:25;;;;;;;0.40;0.40;;;17.80;41.80;;;;;;5034704;28;20397;-74
2023/04/10 11:46:51;;;;;;;1.03;0.97;;;17.80;42.00;;;;;;5034783;28;20410;-74
2023/04/10 11:49:19;;;;;;;0.50;0.50;;;17.60;42.80;;;;;;5034586;28;20418;-78
2023/04/10 11:51:47;;;;;;;0.40;0.40;;;17.70;43.00;;;;;;5034678;28;20524;-73
2023/04/10 11:54:24;;;;;;;0.77;0.77;;;17.60;42.00;;;;;;5034143;28;20408;-76
2023/04/10 11:57:10;;;;;;;0.57;0.57;;;17.60;42.30;;;;;;5034595;28;20944;-73
2023/04/10 11:59:36;;;;;;;0.50;0.50;;;17.40;42.60;;;;;;5034787;28;20406;-73
2023/04/10 12:02:15;;;;;;;0.40;0.40;;;17.30;42.50;;;;;;5034264;28;20521;-72
2023/04/10 12:04:42;;;;;;;1.03;0.90;;;17.20;42.20;;;;;;5034259;28;20172;-74
2023/04/10 12:07:08;;;;;;;0.50;0.50;;;17.10;42.60;;;;;;5034431;28;20410;-72
2023/04/10 12:09:34;;;;;;;0.80;0.80;;;16.80;40.30;;;;;;5034179;28;20513;-73
2023/04/10 12:12:03;;;;;;;0.90;0.90;;;16.70;38.60;;;;;;5034123;28;20508;-74
2023/04/10 12:14:35;;;;;;;0.60;0.60;;;16.60;40.00;;;;;;5016217;28;20445;-74
2023/04/10 12:17:02;;;;;;;0.40;0.40;;;16.70;40.80;;;;;;5034053;28;20472;-77
2023/04/10 12:19:29;;;;;;;0.60;0.60;;;16.90;41.80;;;;;;5034217;28;20494;-75
2023/04/10 12:21:56;;;;;;;0.63;0.53;;;17.00;41.80;;;;;;5033953;28;20426;-77
2023/04/10 12:24:45;;;;;;;0.63;0.63;;;16.90;41.10;;;;;;5033751;28;20426;-74
2023/04/10 12:27:27;;;;;;;0.80;0.80;;;17.10;40.80;;;;;;5033843;28;20759;-75
2023/04/10 12:29:55;;;;;;;0.47;0.47;;;17.10;40.20;;;;;;5034017;28;20897;-76
2023/04/10 12:32:22;;;;;;;0.70;0.50;;;17.20;37.70;;;;;;5034251;28;20421;-73
2023/04/10 12:34:56;;;;;;;0.70;0.67;;;17.20;38.00;;;;;;5033624;28;20409;-75
2023/04/10 12:37:23;;;;;;;0.50;0.50;;;17.20;38.60;;;;;;5033706;28;20952;-76
2023/04/10 12:39:48;;;;;;;0.70;0.70;;;17.10;36.70;;;;;;5016189;28;20497;-77
2023/04/10 12:42:15;;;;;;;0.60;0.60;;;17.20;36.00;;;;;;5032769;28;20421;-75
2023/04/10 12:44:59;;;;;;;0.40;0.40;;;17.50;38.10;;;;;;5033561;28;20178;-75
2023/04/10 12:47:26;;;;;;;0.30;0.30;;;17.60;40.00;;;;;;5033808;28;20525;-74
2023/04/10 12:50:06;;;;;;;0.50;0.50;;;17.60;39.60;;;;;;5033550;28;20778;-74
2023/04/10 12:52:32;;;;;;;0.60;0.60;;;17.60;39.30;;;;;;5033473;28;20429;-72
2023/04/10 12:55:17;;;;;;;0.40;0.40;;;17.70;37.20;;;;;;5033338;28;20435;-75
2023/04/10 12:57:44;;;;;;;0.40;0.40;;;17.70;36.00;;;;;;5033268;28;20461;-73
2023/04/10 13:00:15;;;;;;;0.50;0.50;;;17.80;36.20;;;;;;5033192;28;20401;-74